Diego Garcia, British Indian Ocean

12:49 AM IOT on March 04, 2015 (GMT +0600)
Diego Garcia Navy | Change Station
CLOSE
Current Station
Airport
Location: Diego Garcia,
Elevation: 10 ft
Nearby Weather Stations

Elev 10 ft 7.31 °S, 72.41 °E | Updated 54 minutes ago

Scattered Clouds
Scattered Clouds
82 °F
Feels Like 90 °F
N
0
Wind Variable Wind from North

Today
High -- | Low -- °F
--% Chance of Precip.
Yesterday
High -- | Low -- °F
Precip. -- in
7:15 AM 7:28 PM
Waxing Gibbous, 97% visible
Pressure 29.92 in
Visibility 6.2 miles
Clouds Few 2000 ft
Scattered Clouds 25000 ft
Heat Index 90 °F
Dew Point 78 °F
Humidity 88%
Rainfall 0.06 in
Snow Depth Not available.
UV 0 out of 12
Pollen Not available.
Air Quality Not available.
Flu Activity Not available.
METAR FJDG 031755Z 00000KT 9999 FEW020 SCT250 28/25 A2993 RMK SLP132 60006 8/101 T02760254 10306 20276 403270249 52017

More Conditions Fewer Conditions

Pressure 29.92 in
Visibility 6.2 miles
Clouds Few 2000 ft
Scattered Clouds 25000 ft
Heat Index 90 °F
Dew Point 78 °F
Humidity 88%
Rainfall 0.06 in
Snow Depth Not available.
UV 0 out of 12
Pollen Not available.
Air Quality Not available.
Flu Activity Not available.
METAR FJDG 031755Z 00000KT 9999 FEW020 SCT250 28/25 A2993 RMK SLP132 60006 8/101 T02760254 10306 20276 403270249 52017

More Conditions Fewer Conditions

10-Day Weather Forecast

Almanac

Astronomy

Mar. 04, 2015 Rise Set
Actual Time
Civil Twilight
Nautical Twilight
Astronomical Twilight
Moon
Length of Visible Light
Length of Day
Tomorrow will be .
, % of the Moon is Illuminated

Today's Extremes

Country Highs Country Lows

Community

WunderPhotos

Upload Photos

1,802,198 photos uploaded!

WunderBlogs® & News

Nearby

Air Quality

  Air Quality AQ Index Pollutant
Not available.

Snow Depth

Station Depth Elevation

Earthquake Activity

City Distance Mag. Time & Date
Minimum magnitude displayed is 2.5.

Coastal Water Temperatures

Place Temperature

Nearby Weather Stations